sensor_id;sensor_type;location;lat;lon;timestamp;temperature;humidity
9116;DHT22;4593;53.652;10.168;2023-03-04T00:01:43;5.50;86.80
9116;DHT22;4593;53.652;10.168;2023-03-04T00:04:09;5.50;86.40
9116;DHT22;4593;53.652;10.168;2023-03-04T00:06:34;5.50;86.20
9116;DHT22;4593;53.652;10.168;2023-03-04T00:09:00;5.60;85.80
9116;DHT22;4593;53.652;10.168;2023-03-04T00:11:28;5.70;85.50
9116;DHT22;4593;53.652;10.168;2023-03-04T00:13:54;5.70;85.30
9116;DHT22;4593;53.652;10.168;2023-03-04T00:16:20;5.60;85.50
9116;DHT22;4593;53.652;10.168;2023-03-04T00:18:45;5.60;85.30
9116;DHT22;4593;53.652;10.168;2023-03-04T00:21:11;5.60;85.30
9116;DHT22;4593;53.652;10.168;2023-03-04T00:23:37;5.60;85.20
9116;DHT22;4593;53.652;10.168;2023-03-04T00:26:02;5.60;85.30
9116;DHT22;4593;53.652;10.168;2023-03-04T00:28:28;5.60;85.10
9116;DHT22;4593;53.652;10.168;2023-03-04T00:30:54;5.60;84.90
9116;DHT22;4593;53.652;10.168;2023-03-04T00:33:19;5.70;85.00
9116;DHT22;4593;53.652;10.168;2023-03-04T00:35:45;5.70;84.70
9116;DHT22;4593;53.652;10.168;2023-03-04T00:38:11;5.70;85.00
9116;DHT22;4593;53.652;10.168;2023-03-04T00:40:36;5.60;84.90
9116;DHT22;4593;53.652;10.168;2023-03-04T00:43:02;5.60;84.90
9116;DHT22;4593;53.652;10.168;2023-03-04T00:45:28;5.70;85.10
9116;DHT22;4593;53.652;10.168;2023-03-04T00:47:53;5.70;84.90
9116;DHT22;4593;53.652;10.168;2023-03-04T00:50:19;5.80;84.40
9116;DHT22;4593;53.652;10.168;2023-03-04T00:52:44;5.70;84.20
9116;DHT22;4593;53.652;10.168;2023-03-04T00:55:10;5.80;83.70
9116;DHT22;4593;53.652;10.168;2023-03-04T00:57:36;5.80;83.80
9116;DHT22;4593;53.652;10.168;2023-03-04T01:00:02;5.80;83.80
9116;DHT22;4593;53.652;10.168;2023-03-04T01:02:28;5.80;83.90
9116;DHT22;4593;53.652;10.168;2023-03-04T01:04:53;5.80;83.60
9116;DHT22;4593;53.652;10.168;2023-03-04T01:07:19;5.80;83.70
9116;DHT22;4593;53.652;10.168;2023-03-04T01:09:44;5.90;83.30
9116;DHT22;4593;53.652;10.168;2023-03-04T01:12:11;5.90;83.10
9116;DHT22;4593;53.652;10.168;2023-03-04T01:14:36;5.90;83.00
9116;DHT22;4593;53.652;10.168;2023-03-04T01:17:02;5.90;83.00
9116;DHT22;4593;53.652;10.168;2023-03-04T01:19:28;5.90;82.90
9116;DHT22;4593;53.652;10.168;2023-03-04T01:21:54;5.80;83.20
9116;DHT22;4593;53.652;10.168;2023-03-04T01:24:19;5.80;83.00
9116;DHT22;4593;53.652;10.168;2023-03-04T01:26:45;5.90;83.00
9116;DHT22;4593;53.652;10.168;2023-03-04T01:29:10;5.90;82.90
9116;DHT22;4593;53.652;10.168;2023-03-04T01:31:36;5.90;82.70
9116;DHT22;4593;53.652;10.168;2023-03-04T01:34:02;5.90;82.90
9116;DHT22;4593;53.652;10.168;2023-03-04T01:36:27;5.80;83.00
9116;DHT22;4593;53.652;10.168;2023-03-04T01:38:53;5.80;83.20
9116;DHT22;4593;53.652;10.168;2023-03-04T01:41:24;5.80;83.50
9116;DHT22;4593;53.652;10.168;2023-03-04T01:43:50;5.90;83.50
9116;DHT22;4593;53.652;10.168;2023-03-04T01:46:16;5.90;83.00
9116;DHT22;4593;53.652;10.168;2023-03-04T01:48:42;5.90;82.70
9116;DHT22;4593;53.652;10.168;2023-03-04T01:51:17;6.00;82.90
9116;DHT22;4593;53.652;10.168;2023-03-04T01:53:44;6.00;83.00
9116;DHT22;4593;53.652;10.168;2023-03-04T01:56:24;5.90;83.10
9116;DHT22;4593;53.652;10.168;2023-03-04T02:01:35;5.90;83.30
9116;DHT22;4593;53.652;10.168;2023-03-04T02:04:01;5.90;83.20
9116;DHT22;4593;53.652;10.168;2023-03-04T02:06:26;5.90;83.30
9116;DHT22;4593;53.652;10.168;2023-03-04T02:08:52;5.90;83.30
9116;DHT22;4593;53.652;10.168;2023-03-04T02:11:18;6.00;83.40
9116;DHT22;4593;53.652;10.168;2023-03-04T02:13:44;5.90;83.60
9116;DHT22;4593;53.652;10.168;2023-03-04T02:16:09;5.90;83.70
9116;DHT22;4593;53.652;10.168;2023-03-04T02:18:35;5.90;83.70
9116;DHT22;4593;53.652;10.168;2023-03-04T02:28:38;6.00;83.90
9116;DHT22;4593;53.652;10.168;2023-03-04T02:31:04;6.00;84.00
9116;DHT22;4593;53.652;10.168;2023-03-04T02:33:30;6.00;84.00
9116;DHT22;4593;53.652;10.168;2023-03-04T02:35:55;5.90;84.20
9116;DHT22;4593;53.652;10.168;2023-03-04T02:38:21;5.90;84.40
9116;DHT22;4593;53.652;10.168;2023-03-04T02:40:50;5.90;84.40
9116;DHT22;4593;53.652;10.168;2023-03-04T02:43:17;6.00;84.70
9116;DHT22;4593;53.652;10.168;2023-03-04T02:45:48;6.00;84.70
9116;DHT22;4593;53.652;10.168;2023-03-04T02:48:17;6.00;84.60
9116;DHT22;4593;53.652;10.168;2023-03-04T02:50:46;6.00;84.60
9116;DHT22;4593;53.652;10.168;2023-03-04T02:53:12;5.90;85.20
9116;DHT22;4593;53.652;10.168;2023-03-04T02:55:38;6.00;85.50
9116;DHT22;4593;53.652;10.168;2023-03-04T02:58:04;5.90;86.00
9116;DHT22;4593;53.652;10.168;2023-03-04T03:00:29;5.90;86.70
9116;DHT22;4593;53.652;10.168;2023-03-04T03:02:55;5.90;87.00
9116;DHT22;4593;53.652;10.168;2023-03-04T03:05:26;5.90;87.00
9116;DHT22;4593;53.652;10.168;2023-03-04T03:07:52;5.90;87.30
9116;DHT22;4593;53.652;10.168;2023-03-04T03:10:18;5.90;87.30
9116;DHT22;4593;53.652;10.168;2023-03-04T03:12:44;5.80;87.40
9116;DHT22;4593;53.652;10.168;2023-03-04T03:15:10;5.90;87.10
9116;DHT22;4593;53.652;10.168;2023-03-04T03:17:36;5.80;86.70
9116;DHT22;4593;53.652;10.168;2023-03-04T03:20:02;5.90;86.60
9116;DHT22;4593;53.652;10.168;2023-03-04T03:22:28;5.80;87.00
9116;DHT22;4593;53.652;10.168;2023-03-04T03:24:53;5.80;87.50
9116;DHT22;4593;53.652;10.168;2023-03-04T03:27:19;5.70;87.80
9116;DHT22;4593;53.652;10.168;2023-03-04T03:29:45;5.80;87.70
9116;DHT22;4593;53.652;10.168;2023-03-04T03:32:10;5.90;87.40
9116;DHT22;4593;53.652;10.168;2023-03-04T03:34:36;5.90;86.90
9116;DHT22;4593;53.652;10.168;2023-03-04T03:37:02;5.90;86.50
9116;DHT22;4593;53.652;10.168;2023-03-04T03:39:27;5.90;86.20
9116;DHT22;4593;53.652;10.168;2023-03-04T03:41:53;5.90;85.90
9116;DHT22;4593;53.652;10.168;2023-03-04T03:44:19;5.90;85.70
9116;DHT22;4593;53.652;10.168;2023-03-04T03:46:44;6.00;85.20
9116;DHT22;4593;53.652;10.168;2023-03-04T03:49:11;5.90;85.00
9116;DHT22;4593;53.652;10.168;2023-03-04T03:51:37;6.00;85.10
9116;DHT22;4593;53.652;10.168;2023-03-04T03:54:03;6.00;85.10
9116;DHT22;4593;53.652;10.168;2023-03-04T03:56:29;5.90;85.40
9116;DHT22;4593;53.652;10.168;2023-03-04T03:58:54;5.90;86.10
9116;DHT22;4593;53.652;10.168;2023-03-04T04:01:20;5.90;87.10
9116;DHT22;4593;53.652;10.168;2023-03-04T04:03:46;5.80;87.90
9116;DHT22;4593;53.652;10.168;2023-03-04T04:06:11;5.80;87.90
9116;DHT22;4593;53.652;10.168;2023-03-04T04:08:37;5.80;88.60
9116;DHT22;4593;53.652;10.168;2023-03-04T04:11:03;5.90;88.20
9116;DHT22;4593;53.652;10.168;2023-03-04T04:13:29;5.90;88.10
9116;DHT22;4593;53.652;10.168;2023-03-04T04:15:55;5.80;87.70
9116;DHT22;4593;53.652;10.168;2023-03-04T04:18:20;5.90;87.50
9116;DHT22;4593;53.652;10.168;2023-03-04T04:20:46;5.90;87.40
9116;DHT22;4593;53.652;10.168;2023-03-04T04:23:12;5.80;87.00
9116;DHT22;4593;53.652;10.168;2023-03-04T04:25:37;5.90;86.60
9116;DHT22;4593;53.652;10.168;2023-03-04T04:28:03;5.90;86.60
9116;DHT22;4593;53.652;10.168;2023-03-04T04:30:29;5.90;86.50
9116;DHT22;4593;53.652;10.168;2023-03-04T04:32:54;5.90;86.70
9116;DHT22;4593;53.652;10.168;2023-03-04T04:35:20;5.90;86.70
9116;DHT22;4593;53.652;10.168;2023-03-04T04:37:46;5.90;86.40
9116;DHT22;4593;53.652;10.168;2023-03-04T04:40:11;5.90;86.60
9116;DHT22;4593;53.652;10.168;2023-03-04T04:42:37;5.90;86.50
9116;DHT22;4593;53.652;10.168;2023-03-04T04:45:03;5.90;86.10
9116;DHT22;4593;53.652;10.168;2023-03-04T04:47:29;5.90;86.10
9116;DHT22;4593;53.652;10.168;2023-03-04T04:49:54;5.80;84.40
9116;DHT22;4593;53.652;10.168;2023-03-04T04:52:20;5.70;83.30
9116;DHT22;4593;53.652;10.168;2023-03-04T04:54:46;5.80;83.40
9116;DHT22;4593;53.652;10.168;2023-03-04T04:57:11;5.80;82.80
9116;DHT22;4593;53.652;10.168;2023-03-04T04:59:37;5.80;81.80
9116;DHT22;4593;53.652;10.168;2023-03-04T05:02:02;5.80;81.60
9116;DHT22;4593;53.652;10.168;2023-03-04T05:04:28;5.70;81.70
9116;DHT22;4593;53.652;10.168;2023-03-04T05:06:54;5.70;81.70
9116;DHT22;4593;53.652;10.168;2023-03-04T05:09:19;5.70;81.80
9116;DHT22;4593;53.652;10.168;2023-03-04T05:11:47;5.60;80.10
9116;DHT22;4593;53.652;10.168;2023-03-04T05:14:13;5.60;80.30
9116;DHT22;4593;53.652;10.168;2023-03-04T05:16:38;5.60;78.00
9116;DHT22;4593;53.652;10.168;2023-03-04T05:19:04;5.60;77.80
9116;DHT22;4593;53.652;10.168;2023-03-04T05:21:30;5.60;76.60
9116;DHT22;4593;53.652;10.168;2023-03-04T05:23:55;5.50;76.40
9116;DHT22;4593;53.652;10.168;2023-03-04T05:26:21;5.50;76.20
9116;DHT22;4593;53.652;10.168;2023-03-04T05:28:46;5.50;75.40
9116;DHT22;4593;53.652;10.168;2023-03-04T05:31:12;5.50;75.50
9116;DHT22;4593;53.652;10.168;2023-03-04T05:33:38;5.40;75.40
9116;DHT22;4593;53.652;10.168;2023-03-04T05:36:04;5.50;75.10
9116;DHT22;4593;53.652;10.168;2023-03-04T05:38:30;5.50;74.70
9116;DHT22;4593;53.652;10.168;2023-03-04T05:41:00;5.50;73.70
9116;DHT22;4593;53.652;10.168;2023-03-04T05:43:27;5.50;73.70
9116;DHT22;4593;53.652;10.168;2023-03-04T05:45:53;5.50;73.80
9116;DHT22;4593;53.652;10.168;2023-03-04T05:48:19;5.50;73.90
9116;DHT22;4593;53.652;10.168;2023-03-04T05:50:45;5.50;73.90
9116;DHT22;4593;53.652;10.168;2023-03-04T05:53:11;5.50;73.70
9116;DHT22;4593;53.652;10.168;2023-03-04T05:55:37;5.50;73.90
9116;DHT22;4593;53.652;10.168;2023-03-04T05:58:02;5.50;73.50
9116;DHT22;4593;53.652;10.168;2023-03-04T06:00:28;5.40;73.50
9116;DHT22;4593;53.652;10.168;2023-03-04T06:02:54;5.50;74.10
9116;DHT22;4593;53.652;10.168;2023-03-04T06:05:20;5.50;73.70
9116;DHT22;4593;53.652;10.168;2023-03-04T06:07:45;5.50;73.80
9116;DHT22;4593;53.652;10.168;2023-03-04T06:10:14;5.40;74.60
9116;DHT22;4593;53.652;10.168;2023-03-04T06:12:41;5.50;74.60
9116;DHT22;4593;53.652;10.168;2023-03-04T06:15:07;5.50;74.60
9116;DHT22;4593;53.652;10.168;2023-03-04T06:17:34;5.50;75.30
9116;DHT22;4593;53.652;10.168;2023-03-04T06:20:00;5.40;75.50
9116;DHT22;4593;53.652;10.168;2023-03-04T06:22:26;5.50;75.60
9116;DHT22;4593;53.652;10.168;2023-03-04T06:24:51;5.60;75.50
9116;DHT22;4593;53.652;10.168;2023-03-04T06:27:17;5.60;75.70
9116;DHT22;4593;53.652;10.168;2023-03-04T06:29:43;5.60;75.80
9116;DHT22;4593;53.652;10.168;2023-03-04T06:32:08;5.60;75.70
9116;DHT22;4593;53.652;10.168;2023-03-04T06:34:34;5.60;76.30
9116;DHT22;4593;53.652;10.168;2023-03-04T06:37:00;5.60;76.20
9116;DHT22;4593;53.652;10.168;2023-03-04T06:39:26;5.60;75.70
9116;DHT22;4593;53.652;10.168;2023-03-04T06:41:52;5.50;74.80
9116;DHT22;4593;53.652;10.168;2023-03-04T06:44:17;5.50;74.50
9116;DHT22;4593;53.652;10.168;2023-03-04T06:46:43;5.50;73.80
9116;DHT22;4593;53.652;10.168;2023-03-04T06:49:09;5.40;73.90
9116;DHT22;4593;53.652;10.168;2023-03-04T06:51:35;5.40;73.60
9116;DHT22;4593;53.652;10.168;2023-03-04T06:54:00;5.30;74.20
9116;DHT22;4593;53.652;10.168;2023-03-04T06:56:26;5.30;73.70
9116;DHT22;4593;53.652;10.168;2023-03-04T06:58:51;5.40;73.80
9116;DHT22;4593;53.652;10.168;2023-03-04T07:01:20;5.40;73.70
9116;DHT22;4593;53.652;10.168;2023-03-04T07:03:47;5.40;73.80
9116;DHT22;4593;53.652;10.168;2023-03-04T07:06:15;5.40;74.00
9116;DHT22;4593;53.652;10.168;2023-03-04T07:08:42;5.50;73.80
9116;DHT22;4593;53.652;10.168;2023-03-04T07:11:08;5.50;73.70
9116;DHT22;4593;53.652;10.168;2023-03-04T07:13:34;5.50;74.10
9116;DHT22;4593;53.652;10.168;2023-03-04T07:16:04;5.50;74.30
9116;DHT22;4593;53.652;10.168;2023-03-04T07:18:30;5.70;74.20
9116;DHT22;4593;53.652;10.168;2023-03-04T07:20:55;5.70;73.30
9116;DHT22;4593;53.652;10.168;2023-03-04T07:23:21;5.60;73.30
9116;DHT22;4593;53.652;10.168;2023-03-04T07:25:48;5.70;73.00
9116;DHT22;4593;53.652;10.168;2023-03-04T07:28:14;5.60;73.40
9116;DHT22;4593;53.652;10.168;2023-03-04T07:30:40;5.70;73.30
9116;DHT22;4593;53.652;10.168;2023-03-04T07:33:05;5.70;73.60
9116;DHT22;4593;53.652;10.168;2023-03-04T07:35:31;5.80;74.10
9116;DHT22;4593;53.652;10.168;2023-03-04T07:37:57;5.70;74.60
9116;DHT22;4593;53.652;10.168;2023-03-04T07:40:22;5.70;74.70
9116;DHT22;4593;53.652;10.168;2023-03-04T07:42:49;5.60;72.90
9116;DHT22;4593;53.652;10.168;2023-03-04T07:45:15;5.50;72.70
9116;DHT22;4593;53.652;10.168;2023-03-04T07:47:40;5.50;72.30
9116;DHT22;4593;53.652;10.168;2023-03-04T07:50:07;5.60;72.10
9116;DHT22;4593;53.652;10.168;2023-03-04T07:52:37;5.70;72.00
9116;DHT22;4593;53.652;10.168;2023-03-04T07:55:03;5.80;71.80
9116;DHT22;4593;53.652;10.168;2023-03-04T07:57:29;5.80;70.90
9116;DHT22;4593;53.652;10.168;2023-03-04T07:59:55;5.80;70.70
9116;DHT22;4593;53.652;10.168;2023-03-04T08:02:20;5.80;70.40
9116;DHT22;4593;53.652;10.168;2023-03-04T08:04:46;5.80;71.50
9116;DHT22;4593;53.652;10.168;2023-03-04T08:07:12;5.80;71.30
9116;DHT22;4593;53.652;10.168;2023-03-04T08:09:37;5.70;70.70
9116;DHT22;4593;53.652;10.168;2023-03-04T08:12:03;5.50;70.20
9116;DHT22;4593;53.652;10.168;2023-03-04T08:14:29;5.60;70.70
9116;DHT22;4593;53.652;10.168;2023-03-04T08:16:55;5.70;70.90
9116;DHT22;4593;53.652;10.168;2023-03-04T08:19:21;5.80;70.00
9116;DHT22;4593;53.652;10.168;2023-03-04T08:21:46;5.70;69.60
9116;DHT22;4593;53.652;10.168;2023-03-04T08:24:12;5.70;69.50
9116;DHT22;4593;53.652;10.168;2023-03-04T08:26:41;5.80;69.30
9116;DHT22;4593;53.652;10.168;2023-03-04T08:29:11;5.60;69.70
9116;DHT22;4593;53.652;10.168;2023-03-04T08:31:36;5.60;70.40
9116;DHT22;4593;53.652;10.168;2023-03-04T08:34:04;5.60;70.90
9116;DHT22;4593;53.652;10.168;2023-03-04T08:36:30;5.60;70.80
9116;DHT22;4593;53.652;10.168;2023-03-04T08:38:55;5.60;70.70
9116;DHT22;4593;53.652;10.168;2023-03-04T08:41:21;5.60;70.80
9116;DHT22;4593;53.652;10.168;2023-03-04T08:43:47;5.60;70.90
9116;DHT22;4593;53.652;10.168;2023-03-04T08:46:13;5.60;71.30
9116;DHT22;4593;53.652;10.168;2023-03-04T08:48:38;5.70;71.10
9116;DHT22;4593;53.652;10.168;2023-03-04T08:51:09;5.70;71.00
9116;DHT22;4593;53.652;10.168;2023-03-04T08:53:36;5.70;71.20
9116;DHT22;4593;53.652;10.168;2023-03-04T08:56:02;5.70;71.10
9116;DHT22;4593;53.652;10.168;2023-03-04T08:58:27;5.80;71.20
9116;DHT22;4593;53.652;10.168;2023-03-04T09:00:53;5.80;70.90
9116;DHT22;4593;53.652;10.168;2023-03-04T09:03:20;5.90;70.40
9116;DHT22;4593;53.652;10.168;2023-03-04T09:05:47;6.00;70.20
9116;DHT22;4593;53.652;10.168;2023-03-04T09:08:14;6.00;69.90
9116;DHT22;4593;53.652;10.168;2023-03-04T09:10:40;5.80;70.30
9116;DHT22;4593;53.652;10.168;2023-03-04T09:13:06;5.90;70.10
9116;DHT22;4593;53.652;10.168;2023-03-04T09:15:33;5.80;69.70
9116;DHT22;4593;53.652;10.168;2023-03-04T09:18:02;5.90;69.60
9116;DHT22;4593;53.652;10.168;2023-03-04T09:20:29;5.90;68.40
9116;DHT22;4593;53.652;10.168;2023-03-04T09:22:55;5.90;67.20
9116;DHT22;4593;53.652;10.168;2023-03-04T09:25:20;5.80;67.70
9116;DHT22;4593;53.652;10.168;2023-03-04T09:27:46;6.00;67.30
9116;DHT22;4593;53.652;10.168;2023-03-04T09:30:12;6.00;67.00
9116;DHT22;4593;53.652;10.168;2023-03-04T09:32:38;5.90;66.90
9116;DHT22;4593;53.652;10.168;2023-03-04T09:35:06;5.90;66.20
9116;DHT22;4593;53.652;10.168;2023-03-04T09:37:32;5.80;66.20
9116;DHT22;4593;53.652;10.168;2023-03-04T09:39:58;5.70;66.70
9116;DHT22;4593;53.652;10.168;2023-03-04T09:42:45;5.80;66.20
9116;DHT22;4593;53.652;10.168;2023-03-04T09:45:16;6.10;65.50
9116;DHT22;4593;53.652;10.168;2023-03-04T09:47:43;5.90;65.30
9116;DHT22;4593;53.652;10.168;2023-03-04T09:50:10;5.90;65.50
9116;DHT22;4593;53.652;10.168;2023-03-04T09:53:05;6.10;65.10
9116;DHT22;4593;53.652;10.168;2023-03-04T09:55:40;6.00;64.90
9116;DHT22;4593;53.652;10.168;2023-03-04T10:01:07;6.00;65.70
9116;DHT22;4593;53.652;10.168;2023-03-04T10:03:40;6.00;65.40
9116;DHT22;4593;53.652;10.168;2023-03-04T10:06:12;6.10;65.60
9116;DHT22;4593;53.652;10.168;2023-03-04T10:09:00;6.30;65.30
9116;DHT22;4593;53.652;10.168;2023-03-04T10:11:43;6.30;64.80
9116;DHT22;4593;53.652;10.168;2023-03-04T10:17:02;6.70;64.20
9116;DHT22;4593;53.652;10.168;2023-03-04T10:22:35;6.70;62.90
9116;DHT22;4593;53.652;10.168;2023-03-04T10:25:28;6.70;62.20
9116;DHT22;4593;53.652;10.168;2023-03-04T10:28:06;6.70;61.70
9116;DHT22;4593;53.652;10.168;2023-03-04T10:33:20;6.70;61.20
9116;DHT22;4593;53.652;10.168;2023-03-04T10:35:55;6.60;60.40
9116;DHT22;4593;53.652;10.168;2023-03-04T10:38:23;6.60;61.50
9116;DHT22;4593;53.652;10.168;2023-03-04T10:40:49;6.70;60.40
9116;DHT22;4593;53.652;10.168;2023-03-04T10:43:19;6.80;60.00
9116;DHT22;4593;53.652;10.168;2023-03-04T10:45:45;6.80;59.90
9116;DHT22;4593;53.652;10.168;2023-03-04T10:48:29;6.70;59.70
9116;DHT22;4593;53.652;10.168;2023-03-04T10:51:12;6.70;60.50
9116;DHT22;4593;53.652;10.168;2023-03-04T10:53:42;7.10;60.50
9116;DHT22;4593;53.652;10.168;2023-03-04T10:56:37;7.50;60.20
9116;DHT22;4593;53.652;10.168;2023-03-04T10:59:55;7.70;58.20
9116;DHT22;4593;53.652;10.168;2023-03-04T11:02:32;7.50;58.70
9116;DHT22;4593;53.652;10.168;2023-03-04T11:05:06;7.30;59.50
9116;DHT22;4593;53.652;10.168;2023-03-04T11:07:39;7.30;59.90
9116;DHT22;4593;53.652;10.168;2023-03-04T11:13:24;7.50;59.40
9116;DHT22;4593;53.652;10.168;2023-03-04T11:18:47;7.40;60.50
9116;DHT22;4593;53.652;10.168;2023-03-04T11:21:21;7.20;60.40
9116;DHT22;4593;53.652;10.168;2023-03-04T11:23:59;7.20;60.30
9116;DHT22;4593;53.652;10.168;2023-03-04T11:26:30;7.30;60.40
9116;DHT22;4593;53.652;10.168;2023-03-04T11:29:01;7.40;60.30
9116;DHT22;4593;53.652;10.168;2023-03-04T11:31:33;7.30;59.80
9116;DHT22;4593;53.652;10.168;2023-03-04T11:34:14;7.30;59.10
9116;DHT22;4593;53.652;10.168;2023-03-04T11:39:57;7.20;58.60
9116;DHT22;4593;53.652;10.168;2023-03-04T11:45:15;7.20;59.10
9116;DHT22;4593;53.652;10.168;2023-03-04T11:47:49;7.50;56.80
9116;DHT22;4593;53.652;10.168;2023-03-04T11:53:31;7.60;56.30
9116;DHT22;4593;53.652;10.168;2023-03-04T11:59:00;7.70;56.20
9116;DHT22;4593;53.652;10.168;2023-03-04T12:04:45;7.40;57.70
9116;DHT22;4593;53.652;10.168;2023-03-04T12:20:40;7.60;55.60
9116;DHT22;4593;53.652;10.168;2023-03-04T12:28:40;7.70;55.20
9116;DHT22;4593;53.652;10.168;2023-03-04T12:31:33;7.60;55.30
9116;DHT22;4593;53.652;10.168;2023-03-04T12:44:32;8.00;55.50
9116;DHT22;4593;53.652;10.168;2023-03-04T12:47:21;7.90;54.00
9116;DHT22;4593;53.652;10.168;2023-03-04T12:55:13;7.90;54.00
9116;DHT22;4593;53.652;10.168;2023-03-04T12:57:39;7.70;55.20
9116;DHT22;4593;53.652;10.168;2023-03-04T13:19:42;8.10;53.90
9116;DHT22;4593;53.652;10.168;2023-03-04T13:36:02;8.20;53.90
9116;DHT22;4593;53.652;10.168;2023-03-04T13:43:43;7.70;55.60
9116;DHT22;4593;53.652;10.168;2023-03-04T13:51:33;7.20;57.40
9116;DHT22;4593;53.652;10.168;2023-03-04T13:56:36;7.30;57.30
9116;DHT22;4593;53.652;10.168;2023-03-04T14:01:35;7.10;58.40
9116;DHT22;4593;53.652;10.168;2023-03-04T14:04:10;7.10;58.90
9116;DHT22;4593;53.652;10.168;2023-03-04T14:06:42;7.10;59.10
9116;DHT22;4593;53.652;10.168;2023-03-04T14:09:34;6.80;60.00
9116;DHT22;4593;53.652;10.168;2023-03-04T14:12:02;6.80;60.80
9116;DHT22;4593;53.652;10.168;2023-03-04T14:17:21;6.90;60.60
9116;DHT22;4593;53.652;10.168;2023-03-04T14:19:49;6.90;60.60
9116;DHT22;4593;53.652;10.168;2023-03-04T14:22:38;6.90;60.70
9116;DHT22;4593;53.652;10.168;2023-03-04T14:25:23;6.90;60.70
9116;DHT22;4593;53.652;10.168;2023-03-04T14:27:49;6.80;60.80
9116;DHT22;4593;53.652;10.168;2023-03-04T14:30:24;6.80;61.00
9116;DHT22;4593;53.652;10.168;2023-03-04T14:32:52;6.80;60.80
9116;DHT22;4593;53.652;10.168;2023-03-04T14:35:24;6.60;61.40
9116;DHT22;4593;53.652;10.168;2023-03-04T14:38:00;6.80;61.80
9116;DHT22;4593;53.652;10.168;2023-03-04T14:40:38;6.80;61.00
9116;DHT22;4593;53.652;10.168;2023-03-04T14:43:30;6.70;60.80
9116;DHT22;4593;53.652;10.168;2023-03-04T14:45:59;6.70;61.00
9116;DHT22;4593;53.652;10.168;2023-03-04T14:48:30;6.90;61.00
9116;DHT22;4593;53.652;10.168;2023-03-04T14:50:59;6.70;59.90
9116;DHT22;4593;53.652;10.168;2023-03-04T14:53:27;6.60;60.30
9116;DHT22;4593;53.652;10.168;2023-03-04T14:56:05;6.60;60.40
9116;DHT22;4593;53.652;10.168;2023-03-04T14:58:33;6.70;60.60
9116;DHT22;4593;53.652;10.168;2023-03-04T15:01:15;6.90;60.20
9116;DHT22;4593;53.652;10.168;2023-03-04T15:04:04;6.90;59.90
9116;DHT22;4593;53.652;10.168;2023-03-04T15:06:33;7.00;60.10
9116;DHT22;4593;53.652;10.168;2023-03-04T15:09:03;7.00;59.60
9116;DHT22;4593;53.652;10.168;2023-03-04T15:11:38;7.00;59.70
9116;DHT22;4593;53.652;10.168;2023-03-04T15:22:35;6.60;60.80
9116;DHT22;4593;53.652;10.168;2023-03-04T15:25:01;6.70;61.20
9116;DHT22;4593;53.652;10.168;2023-03-04T15:27:29;6.70;61.10
9116;DHT22;4593;53.652;10.168;2023-03-04T15:29:57;6.50;61.10
9116;DHT22;4593;53.652;10.168;2023-03-04T15:32:27;6.40;61.50
9116;DHT22;4593;53.652;10.168;2023-03-04T15:34:53;6.40;61.90
9116;DHT22;4593;53.652;10.168;2023-03-04T15:37:25;6.40;61.90
9116;DHT22;4593;53.652;10.168;2023-03-04T15:40:00;6.40;62.10
9116;DHT22;4593;53.652;10.168;2023-03-04T15:42:35;6.20;62.70
9116;DHT22;4593;53.652;10.168;2023-03-04T15:45:01;6.20;63.20
9116;DHT22;4593;53.652;10.168;2023-03-04T15:47:26;6.30;63.20
9116;DHT22;4593;53.652;10.168;2023-03-04T15:49:52;6.20;63.80
9116;DHT22;4593;53.652;10.168;2023-03-04T15:52:19;6.10;64.50
9116;DHT22;4593;53.652;10.168;2023-03-04T15:54:47;5.90;65.10
9116;DHT22;4593;53.652;10.168;2023-03-04T15:57:24;6.00;65.60
9116;DHT22;4593;53.652;10.168;2023-03-04T15:59:51;6.00;65.70
9116;DHT22;4593;53.652;10.168;2023-03-04T16:02:24;6.00;65.30
9116;DHT22;4593;53.652;10.168;2023-03-04T16:04:52;6.00;65.40
9116;DHT22;4593;53.652;10.168;2023-03-04T16:07:28;5.90;65.60
9116;DHT22;4593;53.652;10.168;2023-03-04T16:10:00;6.00;66.00
9116;DHT22;4593;53.652;10.168;2023-03-04T16:12:29;6.00;65.50
9116;DHT22;4593;53.652;10.168;2023-03-04T16:14:56;6.10;65.40
9116;DHT22;4593;53.652;10.168;2023-03-04T16:17:22;6.00;65.20
9116;DHT22;4593;53.652;10.168;2023-03-04T16:19:48;5.90;65.40
9116;DHT22;4593;53.652;10.168;2023-03-04T16:22:20;5.70;65.80
9116;DHT22;4593;53.652;10.168;2023-03-04T16:24:49;5.80;66.20
9116;DHT22;4593;53.652;10.168;2023-03-04T16:27:15;5.80;66.30
9116;DHT22;4593;53.652;10.168;2023-03-04T16:29:42;5.80;66.00
9116;DHT22;4593;53.652;10.168;2023-03-04T16:32:08;5.80;66.20
9116;DHT22;4593;53.652;10.168;2023-03-04T16:34:34;5.70;66.10
9116;DHT22;4593;53.652;10.168;2023-03-04T16:37:06;5.70;66.70
9116;DHT22;4593;53.652;10.168;2023-03-04T16:39:36;5.60;66.60
9116;DHT22;4593;53.652;10.168;2023-03-04T16:42:02;5.50;67.00
9116;DHT22;4593;53.652;10.168;2023-03-04T16:44:28;5.50;67.10
9116;DHT22;4593;53.652;10.168;2023-03-04T16:46:54;5.50;67.30
9116;DHT22;4593;53.652;10.168;2023-03-04T16:49:19;5.50;67.40
9116;DHT22;4593;53.652;10.168;2023-03-04T16:51:48;5.50;67.60
9116;DHT22;4593;53.652;10.168;2023-03-04T16:54:28;5.40;67.50
9116;DHT22;4593;53.652;10.168;2023-03-04T16:56:55;5.50;67.60
9116;DHT22;4593;53.652;10.168;2023-03-04T16:59:22;5.50;67.80
9116;DHT22;4593;53.652;10.168;2023-03-04T17:01:48;5.50;67.80
9116;DHT22;4593;53.652;10.168;2023-03-04T17:04:14;5.50;67.40
9116;DHT22;4593;53.652;10.168;2023-03-04T17:06:40;5.40;66.80
9116;DHT22;4593;53.652;10.168;2023-03-04T17:09:06;5.40;66.90
9116;DHT22;4593;53.652;10.168;2023-03-04T17:11:33;5.20;67.20
9116;DHT22;4593;53.652;10.168;2023-03-04T17:13:59;5.20;67.50
9116;DHT22;4593;53.652;10.168;2023-03-04T17:16:24;5.30;67.50
9116;DHT22;4593;53.652;10.168;2023-03-04T17:18:51;5.30;67.00
9116;DHT22;4593;53.652;10.168;2023-03-04T17:21:19;5.20;67.40
9116;DHT22;4593;53.652;10.168;2023-03-04T17:23:45;5.00;67.80
9116;DHT22;4593;53.652;10.168;2023-03-04T17:26:11;5.00;68.20
9116;DHT22;4593;53.652;10.168;2023-03-04T17:28:37;5.00;68.20
9116;DHT22;4593;53.652;10.168;2023-03-04T17:31:10;4.90;68.30
9116;DHT22;4593;53.652;10.168;2023-03-04T17:33:36;4.90;67.50
9116;DHT22;4593;53.652;10.168;2023-03-04T17:36:02;5.00;67.50
9116;DHT22;4593;53.652;10.168;2023-03-04T17:38:28;5.00;67.50
9116;DHT22;4593;53.652;10.168;2023-03-04T17:40:53;4.90;67.50
9116;DHT22;4593;53.652;10.168;2023-03-04T17:43:21;4.90;67.30
9116;DHT22;4593;53.652;10.168;2023-03-04T17:45:47;4.90;67.00
9116;DHT22;4593;53.652;10.168;2023-03-04T17:48:13;4.80;66.80
9116;DHT22;4593;53.652;10.168;2023-03-04T17:50:50;4.80;67.20
9116;DHT22;4593;53.652;10.168;2023-03-04T17:53:16;4.70;67.30
9116;DHT22;4593;53.652;10.168;2023-03-04T17:55:53;4.70;67.40
9116;DHT22;4593;53.652;10.168;2023-03-04T17:58:20;4.70;67.50
9116;DHT22;4593;53.652;10.168;2023-03-04T18:00:47;4.60;67.60
9116;DHT22;4593;53.652;10.168;2023-03-04T18:03:14;4.60;67.40
9116;DHT22;4593;53.652;10.168;2023-03-04T18:05:40;4.70;67.40
9116;DHT22;4593;53.652;10.168;2023-03-04T18:08:05;4.60;67.60
9116;DHT22;4593;53.652;10.168;2023-03-04T18:10:31;4.60;67.70
9116;DHT22;4593;53.652;10.168;2023-03-04T18:12:57;4.60;67.90
9116;DHT22;4593;53.652;10.168;2023-03-04T18:15:22;4.70;67.60
9116;DHT22;4593;53.652;10.168;2023-03-04T18:17:48;4.60;67.30
9116;DHT22;4593;53.652;10.168;2023-03-04T18:20:15;4.60;67.60
9116;DHT22;4593;53.652;10.168;2023-03-04T18:22:41;4.40;68.00
9116;DHT22;4593;53.652;10.168;2023-03-04T18:25:07;4.20;68.40
9116;DHT22;4593;53.652;10.168;2023-03-04T18:27:35;4.20;68.80